createdAt,value
2022-12-13T00:01:46.646Z,47.77
2022-12-13T00:04:14.871Z,49.73
2022-12-13T00:06:44.611Z,44.67
2022-12-13T00:09:15.218Z,45.80
2022-12-13T00:11:43.388Z,43.83
2022-12-13T00:14:13.858Z,52.83
2022-12-13T00:16:42.322Z,46.97
2022-12-13T00:19:10.416Z,50.47
2022-12-13T00:21:39.752Z,48.20
2022-12-13T00:24:09.375Z,50.50
2022-12-13T00:26:38.042Z,46.77
2022-12-13T00:29:08.452Z,45.57
2022-12-13T00:31:59.437Z,46.70
2022-12-13T00:34:25.202Z,42.80
2022-12-13T00:36:54.798Z,46.00
2022-12-13T00:39:24.165Z,41.47
2022-12-13T00:41:52.080Z,43.20
2022-12-13T00:44:20.333Z,43.03
2022-12-13T00:46:48.396Z,39.33
2022-12-13T00:49:16.541Z,39.23
2022-12-13T00:51:44.849Z,41.97
2022-12-13T00:54:12.684Z,43.93
2022-12-13T00:56:41.890Z,41.40
2022-12-13T00:59:14.338Z,48.57
2022-12-13T01:01:42.283Z,40.93
2022-12-13T01:04:10.199Z,39.97
2022-12-13T01:06:43.123Z,44.70
2022-12-13T01:09:17.089Z,42.37
2022-12-13T01:11:47.472Z,44.23
2022-12-13T01:14:16.337Z,49.27
2022-12-13T01:16:44.360Z,42.40
2022-12-13T01:19:12.338Z,46.07
2022-12-13T01:21:40.320Z,42.90
2022-12-13T01:24:08.669Z,40.03
2022-12-13T01:26:37.768Z,43.23
2022-12-13T01:29:07.183Z,44.37
2022-12-13T01:31:37.582Z,46.07
2022-12-13T01:34:10.544Z,40.53
2022-12-13T01:36:40.206Z,40.87
2022-12-13T01:39:14.620Z,44.27
2022-12-13T01:41:44.819Z,47.37
2022-12-13T01:44:46.088Z,48.07
2022-12-13T01:47:19.204Z,45.83
2022-12-13T01:49:47.423Z,45.57
2022-12-13T01:52:16.318Z,48.87
2022-12-13T01:54:47.972Z,49.87
2022-12-13T01:57:18.555Z,44.77
2022-12-13T01:59:48.241Z,41.50
2022-12-13T02:02:17.519Z,40.30
2022-12-13T02:04:51.687Z,43.30
2022-12-13T02:07:23.737Z,48.40
2022-12-13T02:09:56.497Z,43.73
2022-12-13T02:12:29.609Z,41.13
2022-12-13T02:15:00.766Z,47.40
2022-12-13T02:17:45.726Z,43.33
2022-12-13T02:20:52.371Z,42.13
2022-12-13T02:23:38.841Z,46.17
2022-12-13T02:26:32.332Z,39.87
2022-12-13T02:29:30.563Z,44.70
2022-12-13T02:32:05.285Z,42.57
2022-12-13T02:34:39.702Z,44.40
2022-12-13T02:37:18.034Z,45.53
2022-12-13T02:39:53.116Z,40.97
2022-12-13T02:42:26.548Z,38.47
2022-12-13T02:44:58.781Z,43.43
2022-12-13T02:47:30.224Z,38.53
2022-12-13T02:50:02.898Z,41.43
2022-12-13T02:52:33.650Z,43.17
2022-12-13T02:55:01.528Z,42.40
2022-12-13T02:57:32.697Z,37.47
2022-12-13T03:00:04.277Z,38.67
2022-12-13T03:02:44.640Z,36.33
2022-12-13T03:05:41.135Z,38.17
2022-12-13T03:08:22.214Z,37.10
2022-12-13T03:11:00.163Z,33.07
2022-12-13T03:13:37.542Z,35.07
2022-12-13T03:16:24.215Z,31.83
2022-12-13T03:18:56.236Z,37.83
2022-12-13T03:21:24.431Z,39.33
2022-12-13T03:23:53.182Z,34.20
2022-12-13T03:26:24.124Z,43.57
2022-12-13T03:28:52.662Z,38.63
2022-12-13T03:31:20.935Z,37.60
2022-12-13T03:33:48.902Z,40.90
2022-12-13T03:36:19.805Z,38.17
2022-12-13T03:38:48.768Z,40.47
2022-12-13T03:41:19.860Z,38.47
2022-12-13T03:43:47.885Z,34.17
2022-12-13T03:46:15.877Z,40.23
2022-12-13T03:48:43.815Z,37.40
2022-12-13T03:51:11.708Z,39.00
2022-12-13T03:53:40.951Z,35.60
2022-12-13T03:56:09.374Z,32.30
2022-12-13T03:58:38.453Z,36.50
2022-12-13T04:01:11.542Z,31.00
2022-12-13T04:03:40.560Z,31.93
2022-12-13T04:06:09.630Z,31.47
2022-12-13T04:08:38.825Z,36.67
2022-12-13T04:11:22.833Z,34.07
2022-12-13T04:13:50.679Z,38.40
2022-12-13T04:16:18.877Z,33.57
2022-12-13T04:18:46.814Z,34.10
2022-12-13T04:21:14.683Z,37.37
2022-12-13T04:23:42.415Z,32.73
2022-12-13T04:26:11.617Z,38.13
2022-12-13T04:28:39.584Z,29.20
2022-12-13T04:31:08.011Z,35.33
2022-12-13T04:33:35.913Z,34.37
2022-12-13T04:36:04.085Z,35.50
2022-12-13T04:38:31.952Z,36.73
2022-12-13T04:41:07.048Z,37.60
2022-12-13T04:43:36.332Z,35.40
2022-12-13T04:46:04.588Z,31.53
2022-12-13T04:48:33.470Z,37.07
2022-12-13T04:51:02.762Z,32.33
2022-12-13T04:53:31.235Z,32.90
2022-12-13T04:55:59.194Z,33.70
2022-12-13T04:58:27.799Z,36.40
2022-12-13T05:00:57.437Z,33.93
2022-12-13T05:03:25.768Z,35.70
2022-12-13T05:05:53.702Z,35.97
2022-12-13T05:08:21.624Z,35.73
2022-12-13T05:10:49.595Z,34.20
2022-12-13T05:13:17.736Z,34.17
2022-12-13T05:15:49.422Z,33.00
2022-12-13T05:18:21.347Z,39.97
2022-12-13T05:20:50.922Z,34.37
2022-12-13T05:23:22.346Z,38.30
2022-12-13T05:25:51.274Z,35.80
2022-12-13T05:28:27.893Z,33.33
2022-12-13T05:30:58.578Z,40.50
2022-12-13T05:33:28.327Z,37.73
2022-12-13T05:35:59.937Z,38.57
2022-12-13T05:38:29.781Z,41.10
2022-12-13T05:40:57.554Z,64.43
2022-12-13T05:43:42.367Z,41.47
2022-12-13T05:46:12.746Z,38.43
2022-12-13T05:48:42.342Z,41.33
2022-12-13T05:51:11.853Z,37.20
2022-12-13T05:53:41.470Z,39.00
2022-12-13T05:56:10.894Z,36.83
2022-12-13T05:58:40.166Z,35.97
2022-12-13T06:01:10.107Z,37.30
2022-12-13T06:03:38.263Z,34.73
2022-12-13T06:06:09.520Z,34.80
2022-12-13T06:08:38.177Z,37.10
2022-12-13T06:11:10.860Z,39.00
2022-12-13T06:13:42.821Z,37.93
2022-12-13T06:16:22.445Z,39.83
2022-12-13T06:19:02.739Z,40.27
2022-12-13T06:21:43.931Z,35.27
2022-12-13T06:24:15.397Z,32.33
2022-12-13T06:26:45.414Z,38.20
2022-12-13T06:29:24.266Z,39.13
2022-12-13T06:31:55.071Z,31.83
2022-12-13T06:34:32.820Z,36.67
2022-12-13T06:37:02.706Z,38.73
2022-12-13T06:39:33.269Z,37.00
2022-12-13T06:42:02.723Z,35.50
2022-12-13T06:44:30.714Z,40.03
2022-12-13T06:47:11.839Z,41.93
2022-12-13T06:49:43.682Z,30.97
2022-12-13T06:52:16.171Z,34.37
2022-12-13T06:54:44.886Z,34.23
2022-12-13T06:57:13.837Z,31.70
2022-12-13T06:59:42.687Z,29.63
2022-12-13T07:02:15.481Z,32.87
2022-12-13T07:04:55.551Z,34.17
2022-12-13T07:07:26.253Z,40.93
2022-12-13T07:09:54.718Z,39.37
2022-12-13T07:12:23.092Z,32.53
2022-12-13T07:14:50.980Z,37.83
2022-12-13T07:17:31.801Z,36.80
2022-12-13T07:20:07.770Z,36.67
2022-12-13T07:22:44.972Z,36.17
2022-12-13T07:25:28.539Z,33.47
2022-12-13T07:28:02.932Z,35.87
2022-12-13T07:30:33.663Z,32.30
2022-12-13T07:33:02.786Z,32.80
2022-12-13T07:35:31.024Z,32.70
2022-12-13T07:38:07.259Z,33.83
2022-12-13T07:40:35.728Z,32.63
2022-12-13T07:43:03.828Z,31.33
2022-12-13T07:45:31.742Z,36.80
2022-12-13T07:48:00.364Z,37.87
2022-12-13T07:50:28.381Z,36.90
2022-12-13T07:53:08.261Z,37.67
2022-12-13T07:55:37.433Z,38.50
2022-12-13T07:58:06.633Z,40.23
2022-12-13T08:00:34.540Z,37.27
2022-12-13T08:03:02.662Z,37.43
2022-12-13T08:05:38.223Z,34.50
2022-12-13T08:08:11.832Z,31.50
2022-12-13T08:10:40.227Z,37.20
2022-12-13T08:13:08.320Z,35.83
2022-12-13T08:15:36.209Z,32.03
2022-12-13T08:18:06.901Z,36.80
2022-12-13T08:20:34.917Z,36.33
2022-12-13T08:23:02.891Z,34.87
2022-12-13T08:25:32.703Z,32.40
2022-12-13T08:28:01.494Z,29.87
2022-12-13T08:30:31.537Z,34.27
2022-12-13T08:32:59.403Z,32.17
2022-12-13T08:35:34.839Z,32.33
2022-12-13T08:38:03.683Z,33.17
2022-12-13T08:40:33.973Z,34.53
2022-12-13T08:43:01.931Z,32.53
2022-12-13T08:45:31.601Z,38.57
2022-12-13T08:48:00.884Z,32.77
2022-12-13T08:50:29.438Z,31.77
2022-12-13T08:52:57.721Z,30.33
2022-12-13T08:55:31.239Z,32.47
2022-12-13T08:58:08.386Z,35.63
2022-12-13T09:00:40.105Z,33.53
2022-12-13T09:03:10.193Z,31.10
2022-12-13T09:05:39.086Z,31.77
2022-12-13T09:08:23.096Z,31.47
2022-12-13T09:11:11.358Z,34.17
2022-12-13T09:13:52.400Z,30.07
2022-12-13T09:16:35.761Z,30.87
2022-12-13T09:19:06.600Z,29.50
2022-12-13T09:21:53.647Z,27.80
2022-12-13T09:24:36.189Z,25.70
2022-12-13T09:27:09.239Z,27.20
2022-12-13T09:29:39.646Z,28.17
2022-12-13T09:32:07.794Z,29.03
2022-12-13T09:34:35.934Z,31.83
2022-12-13T09:37:04.014Z,26.23
2022-12-13T09:39:31.899Z,28.73
2022-12-13T09:42:01.755Z,26.27
2022-12-13T09:44:49.756Z,27.30
2022-12-13T09:47:47.136Z,28.37
2022-12-13T09:50:25.201Z,28.17
2022-12-13T09:52:59.993Z,29.23
2022-12-13T09:55:32.302Z,27.77
2022-12-13T09:58:06.692Z,29.37
2022-12-13T10:00:37.527Z,33.23
2022-12-13T10:03:05.531Z,30.53
2022-12-13T10:05:39.423Z,28.00
2022-12-13T10:08:12.811Z,26.47
2022-12-13T10:10:40.993Z,29.13
2022-12-13T10:13:17.661Z,30.37
2022-12-13T10:15:51.473Z,32.53
2022-12-13T10:18:27.883Z,30.73
2022-12-13T10:20:56.807Z,29.87
2022-12-13T10:23:47.051Z,24.10
2022-12-13T10:26:24.300Z,27.70
2022-12-13T10:29:03.039Z,28.47
2022-12-13T10:31:41.541Z,25.33
2022-12-13T10:34:21.269Z,23.80
2022-12-13T10:36:49.381Z,23.90
2022-12-13T10:39:20.207Z,24.80
2022-12-13T10:41:48.582Z,25.97
2022-12-13T10:44:22.563Z,24.47
2022-12-13T10:47:00.873Z,27.00
2022-12-13T10:49:35.935Z,27.40
2022-12-13T10:52:04.041Z,23.53
2022-12-13T10:54:38.462Z,24.90
2022-12-13T10:57:16.600Z,24.47
2022-12-13T10:59:47.154Z,23.67
2022-12-13T11:02:36.889Z,23.93
2022-12-13T11:05:27.413Z,23.60
2022-12-13T11:08:00.923Z,24.67
2022-12-13T11:10:30.372Z,22.53
2022-12-13T11:13:02.622Z,23.93
2022-12-13T11:15:32.851Z,23.03
2022-12-13T11:18:05.684Z,22.63
2022-12-13T11:20:36.761Z,22.80
2022-12-13T11:23:08.694Z,21.90
2022-12-13T11:25:41.807Z,23.13
2022-12-13T11:28:27.822Z,22.47
2022-12-13T11:31:07.613Z,20.93
2022-12-13T11:33:48.915Z,23.00
2022-12-13T11:36:29.432Z,23.40
2022-12-13T11:39:15.231Z,22.40
2022-12-13T11:41:50.648Z,27.40
2022-12-13T11:44:25.414Z,26.40
2022-12-13T11:46:56.869Z,24.33
2022-12-13T11:49:38.248Z,20.73
2022-12-13T11:52:15.371Z,21.97
2022-12-13T11:54:55.703Z,21.80
2022-12-13T11:57:44.021Z,17.50
2022-12-13T12:00:34.269Z,20.23
2022-12-13T12:03:18.358Z,21.70
2022-12-13T12:05:56.192Z,21.47
2022-12-13T12:08:34.442Z,20.10
2022-12-13T12:11:09.954Z,18.37
2022-12-13T12:13:50.908Z,19.83
2022-12-13T12:16:29.917Z,20.27
2022-12-13T12:19:01.350Z,22.30
2022-12-13T12:24:36.279Z,22.40
2022-12-13T12:27:22.367Z,20.20
2022-12-13T12:30:11.387Z,19.67
2022-12-13T12:32:48.693Z,22.87
2022-12-13T12:35:28.981Z,25.33
2022-12-13T12:38:13.007Z,22.80
2022-12-13T12:41:15.544Z,20.47
2022-12-13T12:43:43.476Z,21.03
2022-12-13T12:46:52.267Z,26.30
2022-12-13T12:50:02.870Z,20.57
2022-12-13T12:52:45.255Z,20.63
2022-12-13T12:55:20.635Z,23.63
2022-12-13T12:58:01.396Z,23.60
2022-12-13T13:00:36.862Z,25.07
2022-12-13T13:03:26.738Z,26.13
2022-12-13T13:06:02.381Z,20.97
2022-12-13T13:08:38.781Z,27.00
2022-12-13T13:11:25.065Z,20.63
2022-12-13T13:14:06.508Z,21.33
2022-12-13T13:16:39.114Z,28.43
2022-12-13T13:19:27.387Z,27.47
2022-12-13T13:22:02.092Z,25.63
2022-12-13T13:24:31.966Z,26.70
2022-12-13T13:27:21.023Z,24.07
2022-12-13T13:29:48.954Z,25.87
2022-12-13T13:32:30.083Z,22.93
2022-12-13T13:35:31.520Z,25.10
2022-12-13T13:38:06.081Z,21.83
2022-12-13T13:40:35.770Z,22.47
2022-12-13T13:43:10.819Z,21.77
2022-12-13T13:45:57.230Z,22.23
2022-12-13T13:48:40.434Z,27.63
2022-12-13T13:52:16.768Z,23.20
2022-12-13T13:55:03.945Z,20.37
2022-12-13T13:58:09.804Z,22.03
2022-12-13T14:01:02.496Z,21.37
2022-12-13T14:04:10.267Z,25.73
2022-12-13T14:07:10.382Z,24.13
2022-12-13T14:09:54.606Z,26.60
2022-12-13T14:13:04.164Z,24.33
2022-12-13T14:16:23.662Z,24.10
2022-12-13T14:19:29.572Z,28.90
2022-12-13T14:22:39.506Z,26.83
2022-12-13T14:25:46.442Z,30.50
2022-12-13T14:28:28.897Z,23.47
2022-12-13T14:30:57.932Z,25.80
2022-12-13T14:33:28.345Z,29.57
2022-12-13T14:36:00.890Z,24.57
2022-12-13T14:38:30.537Z,25.60
2022-12-13T14:41:02.225Z,24.50
2022-12-13T14:43:37.482Z,28.83
2022-12-13T14:46:07.960Z,28.07
2022-12-13T14:48:38.464Z,29.90
2022-12-13T14:51:06.594Z,29.30
2022-12-13T14:53:41.190Z,28.80
2022-12-13T14:56:27.660Z,26.90
2022-12-13T14:58:58.696Z,30.60
2022-12-13T15:01:30.387Z,30.00
2022-12-13T15:04:20.506Z,29.33
2022-12-13T15:06:55.515Z,29.57
2022-12-13T15:09:29.017Z,30.43
2022-12-13T15:12:14.806Z,24.90
2022-12-13T15:14:51.615Z,26.10
2022-12-13T15:17:28.029Z,31.13
2022-12-13T15:19:58.626Z,27.63
2022-12-13T15:22:29.466Z,27.33
2022-12-13T15:24:58.644Z,26.97
2022-12-13T15:27:28.312Z,27.77
2022-12-13T15:29:56.657Z,27.97
2022-12-13T15:32:24.526Z,26.13
2022-12-13T15:34:52.855Z,26.90
2022-12-13T15:37:28.038Z,25.93
2022-12-13T15:40:01.231Z,26.57
2022-12-13T15:42:34.873Z,29.70
2022-12-13T15:45:07.038Z,28.10
2022-12-13T15:47:35.259Z,26.60
2022-12-13T15:50:06.826Z,28.37
2022-12-13T15:52:37.790Z,27.73
2022-12-13T15:55:33.798Z,32.20
2022-12-13T15:58:04.018Z,27.23
2022-12-13T16:00:34.423Z,26.87
2022-12-13T16:03:09.747Z,26.03
2022-12-13T16:05:42.361Z,26.33
2022-12-13T16:08:25.628Z,25.87
2022-12-13T16:10:54.613Z,26.40
2022-12-13T16:13:27.747Z,28.83
2022-12-13T16:16:26.459Z,26.57
2022-12-13T16:18:57.591Z,35.20
2022-12-13T16:21:26.325Z,24.10
2022-12-13T16:23:54.755Z,22.47
2022-12-13T16:26:25.679Z,21.17
2022-12-13T16:28:56.855Z,18.80
2022-12-13T16:31:27.784Z,18.47
2022-12-13T16:34:19.571Z,16.77
2022-12-13T16:36:54.303Z,18.80
2022-12-13T16:39:22.129Z,16.87
2022-12-13T16:41:50.015Z,18.83
2022-12-13T16:44:27.936Z,25.97
2022-12-13T16:47:12.090Z,14.73
2022-12-13T16:49:44.145Z,17.23
2022-12-13T16:52:12.161Z,15.37
2022-12-13T16:54:40.109Z,16.30
2022-12-13T16:57:08.019Z,15.40
2022-12-13T16:59:37.438Z,16.57
2022-12-13T17:02:06.277Z,16.57
2022-12-13T17:04:34.269Z,18.57
2022-12-13T17:07:02.182Z,19.07
2022-12-13T17:09:30.094Z,19.50
2022-12-13T17:11:58.189Z,18.27
2022-12-13T17:14:26.230Z,15.87
2022-12-13T17:16:55.636Z,16.03
2022-12-13T17:19:24.015Z,15.63
2022-12-13T17:21:52.574Z,19.23
2022-12-13T17:24:20.401Z,17.07
2022-12-13T17:26:54.785Z,21.83
2022-12-13T17:29:24.347Z,23.60
2022-12-13T17:31:52.498Z,25.37
2022-12-13T17:34:21.787Z,22.03
2022-12-13T17:36:49.838Z,18.57
2022-12-13T17:39:17.718Z,15.40
2022-12-13T17:41:55.390Z,21.03
2022-12-13T17:44:25.310Z,21.27
2022-12-13T17:46:54.949Z,19.17
2022-12-13T17:49:25.285Z,21.50
2022-12-13T17:51:54.088Z,22.70
2022-12-13T17:54:23.586Z,18.53
2022-12-13T17:56:51.406Z,17.47
2022-12-13T17:59:19.355Z,17.43
2022-12-13T18:01:47.977Z,17.17
2022-12-13T18:04:16.179Z,14.87
2022-12-13T18:06:45.876Z,20.27
2022-12-13T18:09:14.438Z,15.87
2022-12-13T18:11:42.293Z,17.43
2022-12-13T18:14:10.434Z,21.47
2022-12-13T18:16:39.355Z,15.17
2022-12-13T18:19:09.405Z,15.23
2022-12-13T18:21:39.903Z,15.90
2022-12-13T18:24:10.502Z,15.53
2022-12-13T18:26:38.476Z,19.37
2022-12-13T18:29:07.109Z,17.60
2022-12-13T18:31:35.348Z,17.63
2022-12-13T18:34:03.275Z,17.57
2022-12-13T18:36:31.314Z,18.20
2022-12-13T18:38:59.355Z,15.27
2022-12-13T18:41:30.697Z,19.00
2022-12-13T18:44:00.222Z,16.30
2022-12-13T18:46:29.285Z,14.73
2022-12-13T18:48:57.844Z,15.37
2022-12-13T18:51:26.062Z,15.77
2022-12-13T18:53:54.536Z,15.50
2022-12-13T18:56:22.691Z,16.97
2022-12-13T18:58:53.299Z,17.13
2022-12-13T19:01:25.596Z,15.40
2022-12-13T19:03:53.757Z,16.17
2022-12-13T19:06:23.819Z,18.80
2022-12-13T19:09:17.818Z,14.93
2022-12-13T19:11:45.780Z,19.20
2022-12-13T19:14:15.002Z,15.17
2022-12-13T19:16:43.058Z,16.57
2022-12-13T19:19:10.945Z,12.67
2022-12-13T19:21:38.795Z,14.43
2022-12-13T19:24:10.889Z,16.97
2022-12-13T19:26:39.055Z,14.30
2022-12-13T19:29:07.370Z,13.33
2022-12-13T19:31:36.727Z,15.47
2022-12-13T19:34:04.880Z,14.93
2022-12-13T19:36:33.874Z,16.37
2022-12-13T19:39:02.084Z,16.43
2022-12-13T19:41:32.178Z,15.03
2022-12-13T19:44:03.577Z,19.00
2022-12-13T19:46:31.693Z,15.63
2022-12-13T19:49:01.054Z,17.33
2022-12-13T19:51:29.809Z,16.80
2022-12-13T19:54:00.376Z,14.90
2022-12-13T19:56:28.245Z,17.43
2022-12-13T19:58:56.180Z,18.17
2022-12-13T20:01:24.273Z,19.83
2022-12-13T20:03:52.140Z,17.97
2022-12-13T20:06:24.043Z,14.53
2022-12-13T20:08:52.223Z,15.50
2022-12-13T20:11:21.902Z,15.10
2022-12-13T20:13:51.273Z,15.37
2022-12-13T20:16:21.786Z,17.20
2022-12-13T20:18:55.537Z,17.43
2022-12-13T20:21:25.291Z,15.53
2022-12-13T20:23:53.387Z,23.67
2022-12-13T20:26:23.565Z,26.13
2022-12-13T20:28:52.179Z,25.77
2022-12-13T20:31:21.981Z,27.10
2022-12-13T20:33:50.007Z,23.43
2022-12-13T20:36:24.736Z,21.53
2022-12-13T20:38:56.186Z,19.13
2022-12-13T20:41:25.986Z,17.67
2022-12-13T20:43:54.538Z,19.63
2022-12-13T20:46:23.363Z,21.03
2022-12-13T20:48:52.936Z,20.73
2022-12-13T20:51:22.467Z,19.97
2022-12-13T20:53:51.680Z,23.10
2022-12-13T20:56:22.748Z,21.37
2022-12-13T20:58:51.996Z,21.93
2022-12-13T21:01:22.255Z,20.97
2022-12-13T21:03:51.330Z,22.83
2022-12-13T21:06:19.180Z,22.93
2022-12-13T21:08:53.051Z,22.63
2022-12-13T21:11:29.184Z,19.67
2022-12-13T21:14:05.421Z,20.37
2022-12-13T21:16:39.208Z,21.60
2022-12-13T21:19:08.530Z,22.63
2022-12-13T21:21:36.778Z,33.07
2022-12-13T21:24:04.890Z,33.77
2022-12-13T21:26:36.123Z,22.63
2022-12-13T21:29:07.280Z,17.60
2022-12-13T21:31:36.443Z,17.93
2022-12-13T21:34:06.528Z,19.93
2022-12-13T21:36:36.142Z,18.40
2022-12-13T21:39:07.037Z,20.00
2022-12-13T21:41:36.419Z,24.93
2022-12-13T21:44:04.217Z,19.13
2022-12-13T21:47:11.276Z,21.00
2022-12-13T21:49:20.645Z,16.97
2022-12-13T21:51:48.777Z,16.87
2022-12-13T21:54:17.843Z,17.63
2022-12-13T21:57:04.496Z,17.17
2022-12-13T21:59:32.690Z,19.13
2022-12-13T22:02:19.032Z,18.70
2022-12-13T22:04:49.115Z,18.70
2022-12-13T22:07:19.092Z,19.10
2022-12-13T22:09:47.812Z,19.67
2022-12-13T22:12:22.688Z,17.90
2022-12-13T22:14:50.936Z,16.93
2022-12-13T22:17:19.804Z,21.67
2022-12-13T22:19:48.747Z,21.37
2022-12-13T22:22:17.808Z,18.43
2022-12-13T22:24:52.695Z,15.20
2022-12-13T22:27:23.919Z,15.67
2022-12-13T22:29:52.500Z,14.13
2022-12-13T22:32:21.095Z,14.20
2022-12-13T22:34:49.020Z,14.97
2022-12-13T22:37:16.992Z,16.57
2022-12-13T22:39:44.882Z,13.93
2022-12-13T22:42:12.654Z,13.70
2022-12-13T22:44:45.736Z,18.93
2022-12-13T22:47:13.561Z,11.77
2022-12-13T22:49:41.966Z,14.03
2022-12-13T22:52:09.974Z,14.47
2022-12-13T22:54:38.085Z,15.77
2022-12-13T22:57:05.943Z,14.43
2022-12-13T22:59:34.010Z,14.50
2022-12-13T23:02:04.029Z,12.90
2022-12-13T23:04:32.765Z,14.30
2022-12-13T23:07:00.852Z,12.07
2022-12-13T23:09:28.802Z,13.40
2022-12-13T23:12:14.518Z,13.60
2022-12-13T23:14:42.645Z,10.60
2022-12-13T23:17:11.913Z,10.93
2022-12-13T23:19:50.127Z,10.63
2022-12-13T23:22:21.513Z,12.47
2022-12-13T23:24:49.988Z,13.93
2022-12-13T23:27:18.355Z,13.47
2022-12-13T23:29:46.305Z,11.80
2022-12-13T23:32:15.965Z,11.17
2022-12-13T23:34:43.758Z,11.83
2022-12-13T23:37:11.670Z,14.20
2022-12-13T23:39:41.018Z,13.33
2022-12-13T23:42:08.866Z,12.93
2022-12-13T23:44:37.549Z,13.03
2022-12-13T23:47:05.524Z,11.63
2022-12-13T23:49:34.996Z,11.33
2022-12-13T23:52:03.000Z,12.50
2022-12-13T23:54:30.864Z,13.23
2022-12-13T23:56:58.778Z,13.80
2022-12-13T23:59:28.263Z,11.40
